sim
Sign-in with your pilot id or email,
or register
Callsign
Passwort

Schedule Details

Flight Number: DLH2109 (1)
Departure: Bremen Airport (EDDW) at 08:00
Arrival: Munich Airport (EDDM) at 09:10
Route: Lufthansa Passenger Schedule. Enter filed route here before submitting Pirep.

Weather Information
Getting current METAR information for EDDW 190220Z 07008KT CAVOK 07/04 Q1024
Getting current METAR information for EDDM 190220Z VRB02KT CAVOK 05/03 Q1021 NOSIG

Schedule Frequency

Route Map